DEC weather

Decatur Airport
Decatur, Illinois, United States

Public forecast

Using degrees Fahrenheit for public forecast. Weather courtesy of forecast.io.

METAR (pilot weather report)

Retrieved 2019/05/21 15:54 UTC (7 minutes ago):

KDEC 211554Z 11015KT 10SM OVC040 12/08 A2997 RMK AO2 SLP151 T01170078

TAF (pilot weather forecast)

Retrieved 2019/05/21 12:24 UTC (4 hours ago):

TAF KDEC 211123Z 2112/2212 10015G23KT P6SM VCSH SCT050 OVC080 FM211500 10019G30KT P6SM OVC025 FM220400 12022G33KT 5SM SHRA BR VCTS OVC025CB TEMPO 2204/2206 1 1/2SM +TSRA FM220700 15012KT P6SM SCT120 BKN250